createdAt,value
2018-08-10T00:01:22.675Z,71.71
2018-08-10T00:03:51.987Z,71.28
2018-08-10T00:06:21.409Z,72.04
2018-08-10T00:08:50.692Z,70.88
2018-08-10T00:11:19.955Z,70.61
2018-08-10T00:13:49.275Z,70.30
2018-08-10T00:16:18.987Z,70.30
2018-08-10T00:18:48.287Z,70.32
2018-08-10T00:21:17.551Z,69.97
2018-08-10T00:23:46.884Z,69.86
2018-08-10T00:26:16.359Z,69.12
2018-08-10T00:28:45.647Z,70.14
2018-08-10T00:31:15.030Z,69.46
2018-08-10T00:33:44.279Z,71.43
2018-08-10T00:36:13.549Z,70.90
2018-08-10T00:38:42.845Z,70.93
2018-08-10T00:41:12.131Z,72.31
2018-08-10T00:43:41.460Z,72.92
2018-08-10T00:46:10.746Z,72.72
2018-08-10T00:48:39.986Z,71.47
2018-08-10T00:51:09.384Z,72.28
2018-08-10T00:53:38.750Z,72.59
2018-08-10T00:56:08.035Z,71.20
2018-08-10T00:58:37.332Z,71.15
2018-08-10T01:01:06.827Z,71.31
2018-08-10T01:03:36.065Z,71.54
2018-08-10T01:06:05.350Z,70.70
2018-08-10T01:08:34.652Z,71.09
2018-08-10T01:11:04.260Z,70.11
2018-08-10T01:13:33.741Z,70.75
2018-08-10T01:16:03.005Z,71.48
2018-08-10T01:18:32.366Z,71.11
2018-08-10T01:21:01.663Z,71.71
2018-08-10T01:23:31.207Z,70.32
2018-08-10T01:26:00.500Z,69.86
2018-08-10T01:28:29.831Z,68.93
2018-08-10T01:30:59.376Z,68.70
2018-08-10T01:33:28.889Z,68.32
2018-08-10T01:35:58.475Z,70.28
2018-08-10T01:38:27.903Z,67.87
2018-08-10T01:40:57.394Z,68.19
2018-08-10T01:43:26.946Z,67.99
2018-08-10T01:45:56.468Z,67.80
2018-08-10T01:48:25.878Z,67.10
2018-08-10T01:50:55.651Z,68.45
2018-08-10T01:53:25.040Z,68.26
2018-08-10T01:55:54.489Z,68.37
2018-08-10T01:58:24.044Z,67.34
2018-08-10T02:00:53.380Z,67.69
2018-08-10T02:03:22.806Z,67.37
2018-08-10T02:05:52.339Z,67.26
2018-08-10T02:08:23.051Z,67.95
2018-08-10T02:10:52.572Z,68.24
2018-08-10T02:13:22.057Z,67.65
2018-08-10T02:15:51.443Z,68.86
2018-08-10T02:18:21.079Z,67.12
2018-08-10T02:20:50.828Z,67.16
2018-08-10T02:23:20.289Z,67.82
2018-08-10T02:25:49.597Z,68.33
2018-08-10T02:28:18.859Z,67.85
2018-08-10T02:30:49.646Z,67.36
2018-08-10T02:33:19.208Z,66.84
2018-08-10T02:35:49.021Z,66.89
2018-08-10T02:38:18.859Z,66.67
2018-08-10T02:40:48.334Z,67.03
2018-08-10T02:43:17.775Z,66.96
2018-08-10T02:45:47.429Z,66.48
2018-08-10T02:48:16.954Z,66.14
2018-08-10T02:50:46.390Z,65.66
2018-08-10T02:53:16.411Z,66.44
2018-08-10T02:55:52.709Z,66.10
2018-08-10T02:58:22.378Z,67.37
2018-08-10T03:00:51.967Z,66.48
2018-08-10T03:03:21.311Z,66.07
2018-08-10T03:05:50.723Z,65.95
2018-08-10T03:08:20.211Z,66.86
2018-08-10T03:10:49.854Z,67.04
2018-08-10T03:13:19.813Z,67.06
2018-08-10T03:15:49.240Z,66.44
2018-08-10T03:18:18.687Z,66.06
2018-08-10T03:20:48.032Z,66.47
2018-08-10T03:23:17.445Z,66.71
2018-08-10T03:25:46.729Z,67.33
2018-08-10T03:28:16.006Z,67.00
2018-08-10T03:30:45.314Z,66.72
2018-08-10T03:33:14.647Z,67.71
2018-08-10T03:35:44.460Z,68.42
2018-08-10T03:38:13.797Z,67.95
2018-08-10T03:40:43.075Z,68.23
2018-08-10T03:43:12.712Z,68.19
2018-08-10T03:45:42.003Z,67.42
2018-08-10T03:48:11.267Z,67.57
2018-08-10T03:50:40.604Z,67.52
2018-08-10T03:53:10.114Z,67.77
2018-08-10T03:55:39.443Z,67.50
2018-08-10T03:58:09.008Z,67.31
2018-08-10T04:00:38.377Z,67.77
2018-08-10T04:03:08.093Z,68.53
2018-08-10T04:05:37.476Z,68.42
2018-08-10T04:08:06.740Z,68.05
2018-08-10T04:10:36.034Z,66.87
2018-08-10T04:13:05.398Z,68.29
2018-08-10T04:15:34.664Z,68.27
2018-08-10T04:18:04.099Z,68.46
2018-08-10T04:20:33.960Z,68.27
2018-08-10T04:23:03.305Z,67.92
2018-08-10T04:25:32.577Z,68.62
2018-08-10T04:28:01.880Z,68.46
2018-08-10T04:30:31.132Z,67.54
2018-08-10T04:33:00.402Z,67.64
2018-08-10T04:35:29.804Z,68.26
2018-08-10T04:37:59.172Z,66.96
2018-08-10T04:40:29.754Z,66.80
2018-08-10T04:42:59.502Z,67.32
2018-08-10T04:45:28.818Z,66.04
2018-08-10T04:48:02.696Z,67.17
2018-08-10T04:50:32.949Z,67.26
2018-08-10T04:53:02.248Z,68.00
2018-08-10T04:55:31.641Z,68.23
2018-08-10T04:58:00.897Z,67.89
2018-08-10T05:00:30.219Z,68.35
2018-08-10T05:03:00.064Z,67.39
2018-08-10T05:05:29.330Z,67.59
2018-08-10T05:07:58.703Z,66.33
2018-08-10T05:10:28.050Z,67.48
2018-08-10T05:12:57.351Z,65.65
2018-08-10T05:15:26.699Z,66.15
2018-08-10T05:17:55.995Z,66.58
2018-08-10T05:20:25.299Z,67.57
2018-08-10T05:22:54.738Z,67.64
2018-08-10T05:25:24.600Z,65.10
2018-08-10T05:27:53.900Z,65.28
2018-08-10T05:30:23.199Z,64.38
2018-08-10T05:32:52.557Z,64.86
2018-08-10T05:35:21.917Z,65.26
2018-08-10T05:37:51.283Z,65.70
2018-08-10T05:40:20.682Z,65.58
2018-08-10T05:42:50.032Z,66.50
2018-08-10T05:45:19.344Z,65.03
2018-08-10T05:47:49.145Z,64.98
2018-08-10T05:50:18.798Z,65.22
2018-08-10T05:52:48.195Z,64.99
2018-08-10T05:55:17.555Z,65.44
2018-08-10T05:57:46.862Z,65.80
2018-08-10T06:00:16.206Z,65.21
2018-08-10T06:02:45.866Z,64.28
2018-08-10T06:05:15.248Z,66.42
2018-08-10T06:07:44.618Z,64.80
2018-08-10T06:10:14.129Z,64.41
2018-08-10T06:12:43.608Z,64.69
2018-08-10T06:15:12.934Z,65.51
2018-08-10T06:17:42.294Z,65.18
2018-08-10T06:20:12.339Z,64.78
2018-08-10T06:22:41.953Z,64.54
2018-08-10T06:25:11.367Z,63.67
2018-08-10T06:27:40.640Z,62.58
2018-08-10T06:30:12.318Z,62.28
2018-08-10T06:32:41.604Z,63.30
2018-08-10T06:35:10.967Z,63.41
2018-08-10T06:37:40.281Z,62.03
2018-08-10T06:40:09.591Z,62.53
2018-08-10T06:42:38.945Z,62.57
2018-08-10T06:45:08.327Z,61.26
2018-08-10T06:47:38.940Z,60.49
2018-08-10T06:50:08.830Z,61.29
2018-08-10T06:52:38.530Z,62.21
2018-08-10T06:55:07.842Z,61.10
2018-08-10T06:57:37.518Z,61.81
2018-08-10T07:00:08.051Z,61.63
2018-08-10T07:02:37.386Z,60.93
2018-08-10T07:05:07.740Z,61.06
2018-08-10T07:07:37.567Z,61.50
2018-08-10T07:10:08.114Z,60.53
2018-08-10T07:12:37.467Z,59.37
2018-08-10T07:15:07.452Z,59.95
2018-08-10T07:17:36.787Z,57.67
2018-08-10T07:20:07.202Z,59.58
2018-08-10T07:22:36.819Z,59.50
2018-08-10T07:25:06.815Z,61.00
2018-08-10T07:27:36.175Z,59.34
2018-08-10T07:30:05.711Z,58.94
2018-08-10T07:32:35.011Z,58.35
2018-08-10T07:35:04.410Z,56.79
2018-08-10T07:37:34.166Z,56.56
2018-08-10T07:40:03.532Z,57.30
2018-08-10T07:42:32.882Z,57.97
2018-08-10T07:45:02.324Z,57.90
2018-08-10T07:47:31.716Z,57.76
2018-08-10T07:50:01.055Z,57.70
2018-08-10T07:52:30.402Z,58.72
2018-08-10T07:54:59.729Z,56.00
2018-08-10T07:57:29.023Z,54.98
2018-08-10T07:59:58.464Z,55.75
2018-08-10T08:02:27.806Z,55.27
2018-08-10T08:04:57.167Z,53.86
2018-08-10T08:07:26.491Z,53.40
2018-08-10T08:09:55.841Z,51.76
2018-08-10T08:12:25.148Z,53.38
2018-08-10T08:14:54.491Z,53.71
2018-08-10T08:17:25.320Z,53.40
2018-08-10T08:19:54.847Z,53.96
2018-08-10T08:22:24.496Z,54.48
2018-08-10T08:24:53.800Z,55.34
2018-08-10T08:27:23.113Z,54.57
2018-08-10T08:29:52.494Z,54.78
2018-08-10T08:32:21.793Z,53.77
2018-08-10T08:34:51.261Z,54.20
2018-08-10T08:37:20.498Z,52.86
2018-08-10T08:40:32.812Z,52.90
2018-08-10T08:43:02.472Z,51.32
2018-08-10T08:46:09.161Z,51.48
2018-08-10T08:48:43.849Z,50.95
2018-08-10T08:51:20.134Z,50.44
2018-08-10T08:55:59.232Z,49.07
2018-08-10T08:58:28.968Z,47.38
2018-08-10T09:00:58.283Z,47.85
2018-08-10T09:03:44.819Z,46.74
2018-08-10T09:06:14.200Z,46.68
2018-08-10T09:09:47.670Z,45.75
2018-08-10T09:12:17.401Z,46.50
2018-08-10T09:15:20.244Z,45.93
2018-08-10T09:17:49.670Z,44.45
2018-08-10T09:20:19.181Z,43.76
2018-08-10T09:22:49.037Z,43.72
2018-08-10T09:25:19.487Z,44.41
2018-08-10T09:27:48.822Z,45.03
2018-08-10T09:30:18.888Z,45.08
2018-08-10T09:32:48.150Z,46.05
2018-08-10T09:35:17.507Z,43.77
2018-08-10T09:37:46.858Z,44.20
2018-08-10T09:40:18.858Z,43.88
2018-08-10T09:42:48.981Z,43.37
2018-08-10T09:45:19.257Z,43.04
2018-08-10T09:47:49.838Z,42.86
2018-08-10T09:50:19.879Z,42.52
2018-08-10T09:52:58.502Z,39.97
2018-08-10T09:55:31.697Z,39.03
2018-08-10T09:58:09.896Z,39.17
2018-08-10T10:00:44.368Z,37.86
2018-08-10T10:03:32.436Z,39.19
2018-08-10T10:06:01.787Z,37.45
2018-08-10T10:08:31.086Z,37.74
2018-08-10T10:11:00.425Z,37.51
2018-08-10T10:13:29.734Z,39.84
2018-08-10T10:15:59.133Z,38.13
2018-08-10T10:18:28.603Z,39.16
2018-08-10T10:20:58.012Z,38.88
2018-08-10T10:23:27.311Z,37.35
2018-08-10T10:25:56.675Z,37.19
2018-08-10T10:28:25.975Z,36.60
2018-08-10T10:30:55.324Z,36.48
2018-08-10T10:33:24.907Z,36.44
2018-08-10T10:35:54.255Z,34.79
2018-08-10T10:38:23.779Z,37.61
2018-08-10T10:40:53.502Z,35.69
2018-08-10T10:43:22.826Z,35.14
2018-08-10T10:45:52.145Z,35.73
2018-08-10T10:48:21.562Z,35.95
2018-08-10T10:50:51.176Z,34.99
2018-08-10T10:53:20.432Z,34.83
2018-08-10T10:55:49.914Z,34.05
2018-08-10T10:58:19.220Z,33.77
2018-08-10T11:00:48.527Z,32.63
2018-08-10T11:03:17.920Z,33.43
2018-08-10T11:05:47.244Z,33.34
2018-08-10T11:08:16.777Z,33.09
2018-08-10T11:10:46.095Z,33.40
2018-08-10T11:13:15.587Z,31.88
2018-08-10T11:15:44.983Z,32.77
2018-08-10T11:18:14.355Z,32.85
2018-08-10T11:20:43.641Z,32.98
2018-08-10T11:23:13.149Z,32.51
2018-08-10T11:25:42.688Z,33.18
2018-08-10T11:28:12.044Z,31.75
2018-08-10T11:30:41.421Z,32.46
2018-08-10T11:33:10.787Z,33.21
2018-08-10T11:35:40.127Z,31.72
2018-08-10T11:38:09.476Z,33.45
2018-08-10T11:40:38.806Z,32.37
2018-08-10T11:43:08.218Z,30.60
2018-08-10T11:45:37.546Z,31.90
2018-08-10T11:48:07.287Z,32.64
2018-08-10T11:50:36.697Z,31.80
2018-08-10T11:53:06.032Z,31.20
2018-08-10T11:55:35.580Z,30.64
2018-08-10T11:58:05.100Z,30.85
2018-08-10T12:00:34.407Z,31.95
2018-08-10T12:03:03.760Z,30.80
2018-08-10T12:05:33.106Z,31.60
2018-08-10T12:08:02.437Z,31.16
2018-08-10T12:10:32.458Z,32.86
2018-08-10T12:13:02.092Z,31.52
2018-08-10T12:15:38.047Z,30.31
2018-08-10T12:18:07.386Z,32.13
2018-08-10T12:20:36.720Z,29.55
2018-08-10T12:23:06.074Z,28.93
2018-08-10T12:25:35.366Z,29.87
2018-08-10T12:28:04.720Z,30.03
2018-08-10T12:30:34.188Z,31.07
2018-08-10T12:33:03.578Z,32.01
2018-08-10T12:35:32.904Z,31.28
2018-08-10T12:38:02.373Z,29.09
2018-08-10T12:40:31.713Z,29.44
2018-08-10T12:43:01.057Z,30.23
2018-08-10T12:45:30.695Z,31.71
2018-08-10T12:48:00.004Z,31.23
2018-08-10T12:50:29.355Z,31.12
2018-08-10T12:52:59.176Z,29.52
2018-08-10T12:55:28.484Z,29.72
2018-08-10T12:57:57.829Z,29.37
2018-08-10T13:00:27.176Z,29.41
2018-08-10T13:02:56.568Z,30.18
2018-08-10T13:05:25.884Z,32.27
2018-08-10T13:07:55.257Z,31.18
2018-08-10T13:10:24.636Z,30.28
2018-08-10T13:12:54.272Z,31.57
2018-08-10T13:15:23.901Z,29.16
2018-08-10T13:17:53.238Z,31.70
2018-08-10T13:20:22.597Z,30.28
2018-08-10T13:22:52.087Z,31.19
2018-08-10T13:25:21.485Z,30.90
2018-08-10T13:27:50.785Z,30.31
2018-08-10T13:30:20.188Z,30.83
2018-08-10T13:32:49.510Z,29.71
2018-08-10T13:35:18.920Z,31.67
2018-08-10T13:37:48.289Z,30.40
2018-08-10T13:40:17.756Z,29.47
2018-08-10T13:42:47.145Z,28.45
2018-08-10T13:45:17.147Z,27.99
2018-08-10T13:47:46.436Z,28.71
2018-08-10T13:50:16.847Z,29.63
2018-08-10T13:52:46.410Z,29.18
2018-08-10T13:55:17.850Z,29.49
2018-08-10T13:57:48.576Z,30.50
2018-08-10T14:00:23.197Z,30.79
2018-08-10T14:02:54.533Z,31.29
2018-08-10T14:05:24.438Z,32.12
2018-08-10T14:07:54.327Z,32.26
2018-08-10T14:10:23.965Z,31.98
2018-08-10T14:12:53.278Z,31.09
2018-08-10T14:15:22.706Z,31.43
2018-08-10T14:17:52.589Z,30.77
2018-08-10T14:20:21.984Z,31.91
2018-08-10T14:22:51.302Z,31.57
2018-08-10T14:25:20.782Z,31.07
2018-08-10T14:27:50.132Z,30.62
2018-08-10T14:30:19.494Z,29.23
2018-08-10T14:32:48.988Z,29.76
2018-08-10T14:35:18.467Z,28.76
2018-08-10T14:37:48.048Z,29.54
2018-08-10T14:40:18.662Z,29.57
2018-08-10T14:42:48.109Z,30.05
2018-08-10T14:45:17.544Z,28.46
2018-08-10T14:47:46.894Z,30.10
2018-08-10T14:50:16.322Z,29.53
2018-08-10T14:52:45.658Z,31.63
2018-08-10T14:55:16.439Z,29.70
2018-08-10T14:57:45.778Z,30.35
2018-08-10T15:00:19.077Z,30.67
2018-08-10T15:02:49.019Z,32.96
2018-08-10T15:05:18.718Z,32.08
2018-08-10T15:07:48.182Z,31.90
2018-08-10T15:10:18.294Z,32.45
2018-08-10T15:12:48.551Z,33.70
2018-08-10T15:15:18.965Z,33.10
2018-08-10T15:17:48.805Z,33.14
2018-08-10T15:20:20.592Z,34.86
2018-08-10T15:22:49.960Z,34.20
2018-08-10T15:25:50.944Z,34.02
2018-08-10T15:28:20.278Z,34.31
2018-08-10T15:30:49.679Z,34.64
2018-08-10T15:33:18.907Z,32.99
2018-08-10T15:35:48.210Z,34.35
2018-08-10T15:38:17.627Z,35.10
2018-08-10T15:40:47.188Z,35.28
2018-08-10T15:43:16.495Z,34.69
2018-08-10T15:45:45.867Z,34.80
2018-08-10T15:48:15.255Z,33.72
2018-08-10T15:50:44.570Z,33.79
2018-08-10T15:53:13.902Z,33.04
2018-08-10T15:55:43.213Z,33.00
2018-08-10T15:58:12.557Z,33.14
2018-08-10T16:00:41.809Z,31.73
2018-08-10T16:03:11.366Z,30.02
2018-08-10T16:05:40.783Z,31.48
2018-08-10T16:08:10.166Z,33.17
2018-08-10T16:10:39.654Z,33.16
2018-08-10T16:13:09.003Z,31.38
2018-08-10T16:15:38.299Z,33.57
2018-08-10T16:18:08.118Z,31.79
2018-08-10T16:20:37.453Z,32.72
2018-08-10T16:23:06.820Z,32.75
2018-08-10T16:25:36.388Z,34.18
2018-08-10T16:28:05.723Z,32.27
2018-08-10T16:30:35.155Z,32.83
2018-08-10T16:33:04.665Z,32.72
2018-08-10T16:35:34.032Z,31.76
2018-08-10T16:38:03.441Z,30.57
2018-08-10T16:40:33.215Z,30.64
2018-08-10T16:43:02.623Z,32.19
2018-08-10T16:45:31.910Z,31.16
2018-08-10T16:48:01.379Z,31.54
2018-08-10T16:50:30.809Z,30.27
2018-08-10T16:53:00.340Z,31.22
2018-08-10T16:55:29.719Z,30.58
2018-08-10T16:57:59.068Z,30.33
2018-08-10T17:00:28.476Z,30.49
2018-08-10T17:02:57.809Z,31.42
2018-08-10T17:05:27.100Z,30.93
2018-08-10T17:07:56.395Z,30.89
2018-08-10T17:10:26.047Z,30.86
2018-08-10T17:12:55.334Z,31.38
2018-08-10T17:15:24.712Z,31.70
2018-08-10T17:17:54.070Z,31.46
2018-08-10T17:20:23.445Z,32.42
2018-08-10T17:22:52.790Z,33.35
2018-08-10T17:25:22.339Z,37.43
2018-08-10T17:27:51.701Z,38.58
2018-08-10T17:30:21.119Z,39.09
2018-08-10T17:32:50.641Z,39.61
2018-08-10T17:35:20.119Z,39.66
2018-08-10T17:37:49.569Z,39.67
2018-08-10T17:40:19.097Z,40.50
2018-08-10T17:42:48.429Z,40.48
2018-08-10T17:45:18.545Z,40.39
2018-08-10T17:47:47.914Z,40.01
2018-08-10T17:50:19.924Z,39.96
2018-08-10T17:52:51.286Z,40.02
2018-08-10T17:55:21.230Z,40.34
2018-08-10T17:57:50.519Z,41.16
2018-08-10T18:00:22.351Z,41.48
2018-08-10T18:02:52.000Z,41.63
2018-08-10T18:05:21.419Z,41.47
2018-08-10T18:07:50.823Z,41.07
2018-08-10T18:10:20.702Z,42.35
2018-08-10T18:12:49.979Z,41.84
2018-08-10T18:15:20.843Z,42.01
2018-08-10T18:17:50.239Z,42.54
2018-08-10T18:20:20.839Z,41.48
2018-08-10T18:22:51.238Z,42.20
2018-08-10T18:25:22.008Z,42.50
2018-08-10T18:27:51.368Z,43.49
2018-08-10T18:30:23.840Z,42.72
2018-08-10T18:32:53.316Z,43.54
2018-08-10T18:35:22.690Z,43.23
2018-08-10T18:37:52.565Z,42.41
2018-08-10T18:40:22.133Z,42.61
2018-08-10T18:42:51.702Z,43.46
2018-08-10T18:45:22.622Z,43.00
2018-08-10T18:47:52.060Z,43.89
2018-08-10T18:50:21.900Z,44.11
2018-08-10T18:52:51.364Z,44.33
2018-08-10T18:55:22.535Z,44.37
2018-08-10T18:57:52.807Z,44.91
2018-08-10T19:00:25.400Z,45.11
2018-08-10T19:02:55.426Z,45.66
2018-08-10T19:05:24.777Z,46.26
2018-08-10T19:07:54.241Z,45.65
2018-08-10T19:10:25.393Z,46.57
2018-08-10T19:12:54.783Z,45.90
2018-08-10T19:15:24.211Z,46.88
2018-08-10T19:17:53.669Z,47.09
2018-08-10T19:20:23.028Z,46.88
2018-08-10T19:22:52.364Z,47.64
2018-08-10T19:25:21.775Z,47.12
2018-08-10T19:27:51.093Z,47.61
2018-08-10T19:30:22.138Z,48.35
2018-08-10T19:32:51.834Z,47.89
2018-08-10T19:35:21.180Z,47.77
2018-08-10T19:37:50.543Z,48.77
2018-08-10T19:40:20.625Z,48.23
2018-08-10T19:42:49.930Z,49.31
2018-08-10T19:45:19.489Z,49.11
2018-08-10T19:47:48.948Z,48.97
2018-08-10T19:50:22.389Z,49.02
2018-08-10T19:52:53.534Z,49.72
2018-08-10T19:55:23.307Z,49.10
2018-08-10T19:57:52.852Z,51.04
2018-08-10T20:00:22.256Z,50.51
2018-08-10T20:02:52.148Z,50.26
2018-08-10T20:05:21.470Z,50.49
2018-08-10T20:07:50.960Z,50.31
2018-08-10T20:10:20.438Z,50.27
2018-08-10T20:12:49.922Z,51.08
2018-08-10T20:15:19.932Z,50.38
2018-08-10T20:17:49.709Z,51.53
2018-08-10T20:20:19.902Z,51.35
2018-08-10T20:22:49.631Z,51.51
2018-08-10T20:25:19.081Z,51.69
2018-08-10T20:27:48.589Z,52.46
2018-08-10T20:30:19.643Z,51.86
2018-08-10T20:32:49.309Z,52.15
2018-08-10T20:35:20.360Z,52.59
2018-08-10T20:37:50.454Z,52.30
2018-08-10T20:40:21.063Z,53.00
2018-08-10T20:42:50.597Z,52.63
2018-08-10T20:45:20.856Z,51.86
2018-08-10T20:47:50.913Z,52.35
2018-08-10T20:50:21.144Z,51.26
2018-08-10T20:52:50.455Z,52.85
2018-08-10T20:55:19.930Z,52.56
2018-08-10T20:57:49.526Z,52.78
2018-08-10T21:00:19.393Z,52.90
2018-08-10T21:02:48.846Z,53.50
2018-08-10T21:05:18.288Z,52.96
2018-08-10T21:07:47.666Z,52.63
2018-08-10T21:10:17.739Z,54.61
2018-08-10T21:12:47.642Z,53.48
2018-08-10T21:15:17.605Z,53.77
2018-08-10T21:17:47.446Z,54.20
2018-08-10T21:20:17.770Z,54.51
2018-08-10T21:22:47.771Z,54.73
2018-08-10T21:25:17.094Z,55.22
2018-08-10T21:27:46.445Z,54.75
2018-08-10T21:30:18.466Z,54.87
2018-08-10T21:32:48.686Z,54.46
2018-08-10T21:35:18.304Z,54.47
2018-08-10T21:37:48.381Z,56.16
2018-08-10T21:40:17.532Z,56.59
2018-08-10T21:42:46.853Z,56.78
2018-08-10T21:45:16.205Z,57.13
2018-08-10T21:47:45.563Z,56.35
2018-08-10T21:50:15.459Z,57.51
2018-08-10T21:52:45.791Z,56.56
2018-08-10T21:55:15.247Z,57.24
2018-08-10T21:57:44.589Z,58.20
2018-08-10T22:00:43.593Z,57.76
2018-08-10T22:03:12.922Z,58.49
2018-08-10T22:05:42.211Z,58.22
2018-08-10T22:08:11.539Z,59.28
2018-08-10T22:10:41.202Z,59.53
2018-08-10T22:13:15.840Z,59.42
2018-08-10T22:15:50.374Z,59.70
2018-08-10T22:18:25.409Z,59.69
2018-08-10T22:20:55.415Z,60.80
2018-08-10T22:23:25.345Z,60.34
2018-08-10T22:25:54.721Z,62.10
2018-08-10T22:28:24.076Z,62.91
2018-08-10T22:30:54.732Z,63.27
2018-08-10T22:33:24.256Z,62.90
2018-08-10T22:35:53.616Z,62.38
2018-08-10T22:38:22.964Z,62.85
2018-08-10T22:40:52.395Z,62.91
2018-08-10T22:43:21.799Z,62.77
2018-08-10T22:45:51.331Z,64.86
2018-08-10T22:48:20.765Z,63.41
2018-08-10T22:50:50.117Z,62.54
2018-08-10T22:53:19.426Z,62.58
2018-08-10T22:55:48.839Z,62.44
2018-08-10T22:58:18.094Z,62.82
2018-08-10T23:00:47.361Z,63.44
2018-08-10T23:03:16.918Z,62.67
2018-08-10T23:05:46.274Z,62.59
2018-08-10T23:08:15.983Z,63.35
2018-08-10T23:10:45.284Z,64.92
2018-08-10T23:13:14.600Z,63.57
2018-08-10T23:15:43.917Z,63.00
2018-08-10T23:18:13.255Z,63.85
2018-08-10T23:20:42.566Z,64.17
2018-08-10T23:23:11.872Z,64.37
2018-08-10T23:25:41.678Z,64.16
2018-08-10T23:28:10.965Z,64.30
2018-08-10T23:30:40.317Z,64.24
2018-08-10T23:33:09.745Z,63.93
2018-08-10T23:35:39.038Z,64.67
2018-08-10T23:38:08.373Z,64.86
2018-08-10T23:40:37.721Z,64.81
2018-08-10T23:43:07.643Z,64.16
2018-08-10T23:45:37.031Z,65.21
2018-08-10T23:48:06.759Z,65.00
2018-08-10T23:50:36.058Z,64.99
2018-08-10T23:53:05.358Z,66.37
2018-08-10T23:55:34.703Z,66.56
2018-08-10T23:58:04.104Z,66.03
